Terminal Aerodrome Forecast
Issued by NWS Mobile, AL

Home | Current Version | Previous Version | Text Only | Print | Product List | Glossary On
Versions: 1 2 3 4 5 6 7 8 9 10 11 12 13 14 15 16
000
FTUS44 KMOB 231421 AAA
TAFPNS
TAF AMD
KPNS 231421Z 2314/2412 33004KT 5SM BR BKN030
     FM231500 29008KT P6SM BKN020
     FM231800 25016G23KT P6SM SCT035 SCT090
     FM240300 26007KT P6SM BKN120=

USA.gov is the U.S. government's official web portal to all federal, state and local government web resources and services.